createdAt,value
2022-08-17T00:00:04.078Z,1009.58
2022-08-17T00:01:00.340Z,1009.57
2022-08-17T00:02:04.931Z,1009.58
2022-08-17T00:03:02.824Z,1009.60
2022-08-17T00:04:01.080Z,1009.61
2022-08-17T00:05:04.370Z,1009.61
2022-08-17T00:06:03.492Z,1009.63
2022-08-17T00:07:01.887Z,1009.62
2022-08-17T00:08:04.070Z,1009.63
2022-08-17T00:09:02.470Z,1009.62
2022-08-17T00:10:06.625Z,1009.67
2022-08-17T00:11:04.864Z,1009.65
2022-08-17T00:12:51.162Z,1009.64
2022-08-17T00:13:06.693Z,1009.68
2022-08-17T00:14:04.769Z,1009.65
2022-08-17T00:15:10.458Z,1009.67
2022-08-17T00:16:06.397Z,1009.66
2022-08-17T00:17:04.876Z,1009.64
2022-08-17T00:19:01.941Z,1009.64
2022-08-17T00:19:08.764Z,1009.66
2022-08-17T00:20:08.547Z,1009.65
2022-08-17T00:21:10.552Z,1009.66
2022-08-17T00:22:31.362Z,1009.67
2022-08-17T00:23:09.361Z,1009.67
2022-08-17T00:24:09.360Z,1009.64
2022-08-17T00:25:07.819Z,1009.63
2022-08-17T00:26:10.036Z,1009.66
2022-08-17T00:27:07.566Z,1009.66
2022-08-17T00:28:09.752Z,1009.69
2022-08-17T00:29:09.958Z,1009.72
2022-08-17T00:30:12.458Z,1009.72
2022-08-17T00:31:08.759Z,1009.74
2022-08-17T00:33:15.411Z,1009.74
2022-08-17T00:33:16.500Z,1009.76
2022-08-17T00:34:10.696Z,1009.73
2022-08-17T00:35:13.132Z,1009.76
2022-08-17T00:36:10.190Z,1009.79
2022-08-17T00:37:12.378Z,1009.83
2022-08-17T00:38:10.802Z,1009.85
2022-08-17T00:39:10.989Z,1009.84
2022-08-17T00:40:12.317Z,1009.84
2022-08-17T00:41:13.539Z,1009.84
2022-08-17T00:42:11.902Z,1009.89
2022-08-17T00:43:12.218Z,1009.89
2022-08-17T00:44:12.628Z,1009.88
2022-08-17T00:45:14.843Z,1009.87
2022-08-17T00:46:15.028Z,1009.86
2022-08-17T00:47:15.226Z,1009.81
2022-08-17T00:48:30.000Z,1009.79
2022-08-17T00:49:14.933Z,1009.78
2022-08-17T00:50:17.833Z,1009.78
2022-08-17T00:51:16.389Z,1009.78
2022-08-17T00:52:16.636Z,1009.81
2022-08-17T00:53:16.807Z,1009.81
2022-08-17T00:54:17.075Z,1009.82
2022-08-17T00:55:16.497Z,1009.81
2022-08-17T00:56:17.843Z,1009.86
2022-08-17T00:57:18.005Z,1009.83
2022-08-17T00:58:18.169Z,1009.80
2022-08-17T00:59:17.714Z,1009.80
2022-08-17T01:00:20.914Z,1009.78
2022-08-17T01:01:21.185Z,1009.78
2022-08-17T01:02:19.334Z,1009.73
2022-08-17T01:03:19.529Z,1009.78
2022-08-17T01:04:18.048Z,1009.78
2022-08-17T01:05:21.415Z,1009.77
2022-08-17T01:06:20.555Z,1009.77
2022-08-17T01:07:18.933Z,1009.75
2022-08-17T01:08:21.116Z,1009.77
2022-08-17T01:09:19.501Z,1009.77
2022-08-17T01:11:00.678Z,1009.78
2022-08-17T01:11:21.141Z,1009.85
2022-08-17T01:12:22.309Z,1009.84
2022-08-17T01:13:22.507Z,1009.87
2022-08-17T01:14:22.648Z,1009.88
2022-08-17T01:15:24.261Z,1009.88
2022-08-17T01:16:23.559Z,1009.88
2022-08-17T01:17:21.820Z,1009.88
2022-08-17T01:18:24.006Z,1009.87
2022-08-17T01:19:24.178Z,1009.88
2022-08-17T01:20:25.571Z,1009.89
2022-08-17T01:21:22.985Z,1009.87
2022-08-17T01:22:23.311Z,1009.83
2022-08-17T01:23:23.624Z,1009.89
2022-08-17T01:24:25.809Z,1009.85
2022-08-17T01:25:26.046Z,1009.89
2022-08-17T01:26:24.431Z,1009.89
2022-08-17T01:27:24.734Z,1009.88
2022-08-17T01:28:52.266Z,1009.84
2022-08-17T01:29:26.288Z,1009.88
2022-08-17T01:30:58.507Z,1009.86
2022-08-17T01:31:26.891Z,1009.86
2022-08-17T01:32:26.137Z,1009.91
2022-08-17T01:33:26.440Z,1009.90
2022-08-17T01:34:42.533Z,1009.94
2022-08-17T01:35:29.840Z,1009.94
2022-08-17T01:36:27.372Z,1009.97
2022-08-17T01:37:29.541Z,1009.94
2022-08-17T01:38:27.929Z,1009.95
2022-08-17T01:39:30.162Z,1009.97
2022-08-17T01:40:30.300Z,1009.91
2022-08-17T01:41:30.505Z,1009.92
2022-08-17T01:42:30.667Z,1009.91
2022-08-17T01:43:32.825Z,1009.91
2022-08-17T01:44:29.742Z,1009.88
2022-08-17T01:45:31.894Z,1009.90
2022-08-17T01:46:32.120Z,1009.93
2022-08-17T01:47:30.627Z,1009.94
2022-08-17T01:48:32.823Z,1009.95
2022-08-17T01:49:33.012Z,1009.94
2022-08-17T01:50:33.261Z,1009.97
2022-08-17T01:51:33.451Z,1009.97
2022-08-17T01:52:32.085Z,1010.00
2022-08-17T01:53:32.397Z,1009.99
2022-08-17T01:54:32.713Z,1009.99
2022-08-17T01:55:33.029Z,1009.97
2022-08-17T01:56:35.216Z,1009.97
2022-08-17T01:57:33.621Z,1009.99
2022-08-17T01:58:33.937Z,1009.97
2022-08-17T01:59:34.254Z,1010.00
2022-08-17T02:01:00.140Z,1010.02
2022-08-17T02:01:37.752Z,1010.04
2022-08-17T02:02:36.925Z,1010.02
2022-08-17T02:03:35.464Z,1010.04
2022-08-17T02:04:35.778Z,1010.04
2022-08-17T02:05:36.086Z,1010.00
2022-08-17T02:06:52.770Z,1010.00
2022-08-17T02:07:59.907Z,1010.00
2022-08-17T02:08:39.516Z,1010.01
2022-08-17T02:09:39.302Z,1010.03
2022-08-17T02:10:37.542Z,1010.04
2022-08-17T02:11:38.878Z,1010.06
2022-08-17T02:12:40.054Z,1010.06
2022-08-17T02:13:38.447Z,1010.06
2022-08-17T02:14:39.588Z,1010.07
2022-08-17T02:15:40.997Z,1010.08
2022-08-17T02:16:41.169Z,1010.10
2022-08-17T02:17:41.352Z,1010.07
2022-08-17T02:18:40.035Z,1010.04
2022-08-17T02:19:41.173Z,1010.03
2022-08-17T02:20:42.998Z,1010.04
2022-08-17T02:21:42.758Z,1010.01
2022-08-17T02:22:41.279Z,1010.03
2022-08-17T02:23:43.465Z,1010.02
2022-08-17T02:25:00.619Z,1010.00
2022-08-17T02:25:43.140Z,1010.02
2022-08-17T02:26:42.392Z,1010.00
2022-08-17T02:27:42.733Z,1010.03
2022-08-17T02:28:43.045Z,1010.01
2022-08-17T02:29:46.349Z,1010.01
2022-08-17T02:30:59.242Z,1010.00
2022-08-17T02:31:44.964Z,1010.04
2022-08-17T02:32:46.203Z,1009.99
2022-08-17T02:33:44.462Z,1009.97
2022-08-17T02:34:48.657Z,1009.98
2022-08-17T02:35:47.865Z,1009.94
2022-08-17T02:36:47.049Z,1009.96
2022-08-17T02:37:48.953Z,1009.95
2022-08-17T02:38:47.006Z,1009.99
2022-08-17T02:39:47.209Z,1009.96
2022-08-17T02:40:46.565Z,1010.01
2022-08-17T02:41:48.767Z,1010.03
2022-08-17T02:42:49.128Z,1010.08
2022-08-17T02:43:49.141Z,1010.11
2022-08-17T02:44:49.762Z,1010.10
2022-08-17T02:45:49.635Z,1010.10
2022-08-17T02:46:50.307Z,1010.13
2022-08-17T02:47:50.479Z,1010.13
2022-08-17T02:48:50.673Z,1010.12
2022-08-17T02:49:55.520Z,1010.07
2022-08-17T02:50:51.071Z,1010.06
2022-08-17T02:51:51.279Z,1010.08
2022-08-17T02:53:01.355Z,1010.05
2022-08-17T02:53:53.160Z,1010.03
2022-08-17T02:54:53.480Z,1010.01
2022-08-17T02:55:50.757Z,1010.02
2022-08-17T02:56:51.081Z,1010.00
2022-08-17T02:57:51.535Z,1009.99
2022-08-17T02:58:53.571Z,1010.02
2022-08-17T02:59:54.851Z,1010.06
2022-08-17T03:00:52.285Z,1010.08
2022-08-17T03:01:52.633Z,1010.07
2022-08-17T03:02:52.983Z,1010.08
2022-08-17T03:03:53.184Z,1010.08
2022-08-17T03:04:56.552Z,1010.04
2022-08-17T03:05:53.856Z,1010.03
2022-08-17T03:06:54.170Z,1010.05
2022-08-17T03:07:54.484Z,1010.03
2022-08-17T03:08:54.801Z,1010.01
2022-08-17T03:09:57.090Z,1010.04
2022-08-17T03:10:55.363Z,1010.05
2022-08-17T03:11:56.644Z,1010.00
2022-08-17T03:12:56.060Z,1009.97
2022-08-17T03:13:57.259Z,1010.01
2022-08-17T03:14:59.584Z,1009.93
2022-08-17T03:15:58.351Z,1009.94
2022-08-17T03:16:58.541Z,1009.97
2022-08-17T03:17:59.195Z,1009.96
2022-08-17T03:18:59.395Z,1009.98
2022-08-17T03:19:59.726Z,1009.94
2022-08-17T03:20:59.918Z,1010.02
2022-08-17T03:22:00.098Z,1010.04
2022-08-17T03:23:00.054Z,1010.10
2022-08-17T03:23:59.169Z,1010.09
2022-08-17T03:25:00.995Z,1010.11
2022-08-17T03:25:59.723Z,1010.11
2022-08-17T03:27:01.921Z,1010.12
2022-08-17T03:28:02.100Z,1010.09
2022-08-17T03:29:02.303Z,1010.10
2022-08-17T03:30:01.829Z,1010.07
2022-08-17T03:31:03.175Z,1010.04
2022-08-17T03:32:03.383Z,1010.03
2022-08-17T03:33:03.576Z,1010.04
2022-08-17T03:34:03.784Z,1010.05
2022-08-17T03:35:05.454Z,1010.02
2022-08-17T03:36:03.273Z,1010.03
2022-08-17T03:37:03.023Z,1010.02
2022-08-17T03:38:03.347Z,1010.00
2022-08-17T03:39:05.541Z,1009.98
2022-08-17T03:40:05.578Z,1009.99
2022-08-17T03:41:04.231Z,1010.00
2022-08-17T03:42:04.558Z,1010.03
2022-08-17T03:43:04.890Z,1010.01
2022-08-17T03:44:05.227Z,1010.02
2022-08-17T03:45:06.530Z,1009.97
2022-08-17T03:46:10.800Z,1009.95
2022-08-17T03:47:07.054Z,1009.94
2022-08-17T03:48:06.327Z,1009.99
2022-08-17T03:49:07.032Z,1009.92
2022-08-17T03:50:10.842Z,1009.95
2022-08-17T03:51:14.161Z,1009.92
2022-08-17T03:52:10.235Z,1010.00
2022-08-17T03:53:07.803Z,1009.98
2022-08-17T03:54:08.019Z,1010.04
2022-08-17T03:55:12.245Z,1010.03
2022-08-17T03:56:08.666Z,1010.03
2022-08-17T03:57:10.860Z,1010.06
2022-08-17T03:58:10.145Z,1010.05
2022-08-17T03:59:09.567Z,1010.02
2022-08-17T04:00:11.745Z,1010.05
2022-08-17T04:01:10.102Z,1010.10
2022-08-17T04:02:12.233Z,1010.08
2022-08-17T04:03:10.517Z,1010.12
2022-08-17T04:04:10.870Z,1010.12
2022-08-17T04:05:15.049Z,1010.13
2022-08-17T04:06:11.498Z,1010.11
2022-08-17T04:07:13.678Z,1010.14
2022-08-17T04:08:12.092Z,1010.17
2022-08-17T04:09:12.441Z,1010.16
2022-08-17T04:10:16.627Z,1010.19
2022-08-17T04:11:13.070Z,1010.21
2022-08-17T04:12:15.346Z,1010.23
2022-08-17T04:13:14.599Z,1010.24
2022-08-17T04:14:13.915Z,1010.24
2022-08-17T04:15:17.230Z,1010.25
2022-08-17T04:16:14.425Z,1010.24
2022-08-17T04:17:14.663Z,1010.27
2022-08-17T04:18:14.927Z,1010.28
2022-08-17T04:19:17.115Z,1010.30
2022-08-17T04:20:16.249Z,1010.31
2022-08-17T04:21:17.185Z,1010.33
2022-08-17T04:22:31.131Z,1010.30
2022-08-17T04:23:17.228Z,1010.27
2022-08-17T04:24:16.555Z,1010.27
2022-08-17T04:25:19.709Z,1010.27
2022-08-17T04:26:52.011Z,1010.29
2022-08-17T04:27:18.252Z,1010.29
2022-08-17T04:28:19.436Z,1010.26
2022-08-17T04:29:19.639Z,1010.26
2022-08-17T04:30:21.158Z,1010.28
2022-08-17T04:31:19.264Z,1010.32
2022-08-17T04:32:58.557Z,1010.30
2022-08-17T04:33:21.868Z,1010.33
2022-08-17T04:34:21.049Z,1010.28
2022-08-17T04:35:22.474Z,1010.35
2022-08-17T04:36:21.917Z,1010.33
2022-08-17T04:37:22.114Z,1010.32
2022-08-17T04:38:22.296Z,1010.32
2022-08-17T04:39:22.472Z,1010.37
2022-08-17T04:40:23.156Z,1010.35
2022-08-17T04:41:21.410Z,1010.39
2022-08-17T04:42:21.757Z,1010.40
2022-08-17T04:43:23.943Z,1010.37
2022-08-17T04:44:36.830Z,1010.33
2022-08-17T04:45:27.469Z,1010.36
2022-08-17T04:46:23.813Z,1010.34
2022-08-17T04:47:23.126Z,1010.35
2022-08-17T04:48:29.801Z,1010.35
2022-08-17T04:49:24.620Z,1010.36
2022-08-17T04:50:25.802Z,1010.37
2022-08-17T04:51:25.991Z,1010.40
2022-08-17T04:52:29.835Z,1010.38
2022-08-17T04:53:25.876Z,1010.37
2022-08-17T04:54:27.084Z,1010.35
2022-08-17T04:55:25.809Z,1010.36
2022-08-17T04:56:25.882Z,1010.37
2022-08-17T04:57:27.987Z,1010.34
2022-08-17T04:58:28.192Z,1010.38
2022-08-17T04:59:28.356Z,1010.37
2022-08-17T05:00:28.552Z,1010.35
2022-08-17T05:01:29.310Z,1010.36
2022-08-17T05:02:29.421Z,1010.35
2022-08-17T05:03:29.611Z,1010.38
2022-08-17T05:04:33.966Z,1010.35
2022-08-17T05:05:29.457Z,1010.37
2022-08-17T05:06:30.642Z,1010.32
2022-08-17T05:07:31.558Z,1010.34
2022-08-17T05:08:31.273Z,1010.33
2022-08-17T05:09:31.437Z,1010.38
2022-08-17T05:10:29.973Z,1010.36
2022-08-17T05:11:32.163Z,1010.35
2022-08-17T05:12:30.466Z,1010.35
2022-08-17T05:13:32.665Z,1010.35
2022-08-17T05:14:33.876Z,1010.38
2022-08-17T05:15:36.086Z,1010.37
2022-08-17T05:16:33.217Z,1010.39
2022-08-17T05:17:31.893Z,1010.44
2022-08-17T05:18:34.094Z,1010.45
2022-08-17T05:19:32.398Z,1010.43
2022-08-17T05:20:36.570Z,1010.45
2022-08-17T05:21:34.795Z,1010.46
2022-08-17T05:22:35.119Z,1010.44
2022-08-17T05:23:43.013Z,1010.49
2022-08-17T05:24:38.430Z,1010.48
2022-08-17T05:25:34.559Z,1010.50
2022-08-17T05:26:34.492Z,1010.52
2022-08-17T05:27:36.679Z,1010.51
2022-08-17T05:28:37.379Z,1010.52
2022-08-17T05:29:35.983Z,1010.57
2022-08-17T05:30:37.467Z,1010.59
2022-08-17T05:31:37.858Z,1010.60
2022-08-17T05:32:40.340Z,1010.59
2022-08-17T05:33:43.925Z,1010.59
2022-08-17T05:34:37.585Z,1010.57
2022-08-17T05:35:36.874Z,1010.58
2022-08-17T05:36:44.115Z,1010.58
2022-08-17T05:37:38.393Z,1010.54
2022-08-17T05:38:40.743Z,1010.55
2022-08-17T05:39:39.780Z,1010.54
2022-08-17T05:40:38.189Z,1010.52
2022-08-17T05:41:40.383Z,1010.53
2022-08-17T05:42:38.686Z,1010.51
2022-08-17T05:43:39.747Z,1010.53
2022-08-17T05:44:39.162Z,1010.54
2022-08-17T05:45:54.888Z,1010.54
2022-08-17T05:46:42.554Z,1010.60
2022-08-17T05:47:40.000Z,1010.56
2022-08-17T05:48:43.185Z,1010.59
2022-08-17T05:49:43.360Z,1010.63
2022-08-17T05:50:40.813Z,1010.64
2022-08-17T05:51:43.030Z,1010.64
2022-08-17T05:52:43.229Z,1010.61
2022-08-17T05:53:44.677Z,1010.62
2022-08-17T05:54:41.876Z,1010.61
2022-08-17T05:55:42.111Z,1010.57
2022-08-17T05:56:42.357Z,1010.59
2022-08-17T05:57:47.549Z,1010.57
2022-08-17T05:58:44.716Z,1010.60
2022-08-17T05:59:43.152Z,1010.58
2022-08-17T06:00:45.410Z,1010.61
2022-08-17T06:01:43.734Z,1010.61
2022-08-17T06:02:48.219Z,1010.61
2022-08-17T06:03:47.300Z,1010.62
2022-08-17T06:04:44.507Z,1010.62
2022-08-17T06:05:46.699Z,1010.58
2022-08-17T06:06:45.008Z,1010.66
2022-08-17T06:07:47.199Z,1010.68
2022-08-17T06:08:48.370Z,1010.65
2022-08-17T06:09:45.787Z,1010.66
2022-08-17T06:10:46.081Z,1010.71
2022-08-17T06:11:46.261Z,1010.71
2022-08-17T06:12:46.539Z,1010.72
2022-08-17T06:13:50.685Z,1010.73
2022-08-17T06:14:47.040Z,1010.70
2022-08-17T06:15:48.194Z,1010.77
2022-08-17T06:16:48.623Z,1010.74
2022-08-17T06:17:48.771Z,1010.77
2022-08-17T06:18:51.244Z,1010.80
2022-08-17T06:19:48.438Z,1010.80
2022-08-17T06:20:48.691Z,1010.80
2022-08-17T06:21:48.945Z,1010.79
2022-08-17T06:22:51.311Z,1010.74
2022-08-17T06:23:50.978Z,1010.79
2022-08-17T06:24:51.725Z,1010.83
2022-08-17T06:25:50.030Z,1010.82
2022-08-17T06:26:52.192Z,1010.82
2022-08-17T06:27:53.363Z,1010.79
2022-08-17T06:28:51.816Z,1010.80
2022-08-17T06:29:51.136Z,1010.78
2022-08-17T06:30:59.610Z,1010.74
2022-08-17T06:31:54.577Z,1010.77
2022-08-17T06:32:53.766Z,1010.79
2022-08-17T06:33:55.209Z,1010.78
2022-08-17T06:34:52.541Z,1010.82
2022-08-17T06:35:52.814Z,1010.81
2022-08-17T06:36:53.102Z,1010.78
2022-08-17T06:37:55.299Z,1010.78
2022-08-17T06:38:56.748Z,1010.79
2022-08-17T06:39:55.703Z,1010.79
2022-08-17T06:40:56.362Z,1010.79
2022-08-17T06:41:55.693Z,1010.77
2022-08-17T06:43:05.338Z,1010.81
2022-08-17T06:43:57.783Z,1010.89
2022-08-17T06:44:55.633Z,1010.85
2022-08-17T06:45:55.848Z,1010.91
2022-08-17T06:46:58.047Z,1010.88
2022-08-17T06:47:56.362Z,1010.93
2022-08-17T06:48:57.573Z,1010.89
2022-08-17T06:49:56.869Z,1010.89
2022-08-17T06:50:57.250Z,1010.88
2022-08-17T06:51:58.932Z,1010.91
2022-08-17T06:52:59.949Z,1010.93
2022-08-17T06:53:59.375Z,1010.93
2022-08-17T06:54:58.173Z,1010.96
2022-08-17T06:56:00.389Z,1010.94
2022-08-17T06:57:00.581Z,1011.01
2022-08-17T06:58:00.735Z,1010.99
2022-08-17T06:59:02.247Z,1010.97
2022-08-17T07:00:01.132Z,1011.01
2022-08-17T07:01:01.884Z,1010.99
2022-08-17T07:02:02.017Z,1011.01
2022-08-17T07:03:00.556Z,1010.98
2022-08-17T07:04:05.009Z,1011.02
2022-08-17T07:05:01.923Z,1011.04
2022-08-17T07:06:03.116Z,1011.04
2022-08-17T07:07:03.305Z,1011.00
2022-08-17T07:08:03.550Z,1011.03
2022-08-17T07:09:04.227Z,1011.03
2022-08-17T07:10:04.493Z,1011.02
2022-08-17T07:11:04.593Z,1011.07
2022-08-17T07:12:04.754Z,1011.04
2022-08-17T07:13:05.452Z,1011.06
2022-08-17T07:14:05.696Z,1011.05
2022-08-17T07:15:05.880Z,1011.09
2022-08-17T07:16:06.058Z,1011.09
2022-08-17T07:17:06.263Z,1011.12
2022-08-17T07:18:06.458Z,1011.08
2022-08-17T07:19:07.163Z,1011.05
2022-08-17T07:20:05.496Z,1011.09
2022-08-17T07:21:05.699Z,1011.10
2022-08-17T07:22:07.886Z,1011.12
2022-08-17T07:23:08.072Z,1011.07
2022-08-17T07:24:08.262Z,1011.09
2022-08-17T07:25:06.838Z,1011.11
2022-08-17T07:26:07.086Z,1011.14
2022-08-17T07:27:09.268Z,1011.15
2022-08-17T07:28:09.457Z,1011.21
2022-08-17T07:29:09.635Z,1011.16
2022-08-17T07:30:11.111Z,1011.16
2022-08-17T07:31:10.525Z,1011.18
2022-08-17T07:32:10.725Z,1011.27
2022-08-17T07:33:12.540Z,1011.24
2022-08-17T07:34:09.337Z,1011.28
2022-08-17T07:35:11.774Z,1011.24
2022-08-17T07:36:11.713Z,1011.25
2022-08-17T07:37:11.906Z,1011.25
2022-08-17T07:38:25.834Z,1011.21
2022-08-17T07:39:13.283Z,1011.20
2022-08-17T07:40:16.460Z,1011.23
2022-08-17T07:41:11.225Z,1011.27
2022-08-17T07:42:13.414Z,1011.23
2022-08-17T07:43:19.925Z,1011.22
2022-08-17T07:44:14.883Z,1011.24
2022-08-17T07:45:12.352Z,1011.23
2022-08-17T07:46:14.560Z,1011.18
2022-08-17T07:47:14.753Z,1011.18
2022-08-17T07:48:15.717Z,1011.16
2022-08-17T07:49:15.191Z,1011.20
2022-08-17T07:50:15.355Z,1011.27
2022-08-17T07:51:14.050Z,1011.28
2022-08-17T07:52:47.796Z,1011.28
2022-08-17T07:53:19.461Z,1011.19
2022-08-17T07:54:16.686Z,1011.21
2022-08-17T07:55:16.878Z,1011.20
2022-08-17T07:56:15.442Z,1011.28
2022-08-17T07:57:15.691Z,1011.19
2022-08-17T07:58:16.805Z,1011.26
2022-08-17T07:59:18.162Z,1011.22
2022-08-17T08:00:18.349Z,1011.21
2022-08-17T08:01:17.802Z,1011.28
2022-08-17T08:02:17.224Z,1011.28
2022-08-17T08:03:18.370Z,1011.29
2022-08-17T08:04:29.156Z,1011.29
2022-08-17T08:05:48.671Z,1011.36
2022-08-17T08:06:20.131Z,1011.38
2022-08-17T08:07:18.576Z,1011.41
2022-08-17T08:08:19.691Z,1011.34
2022-08-17T08:09:21.075Z,1011.33
2022-08-17T08:10:19.395Z,1011.36
2022-08-17T08:11:21.782Z,1011.37
2022-08-17T08:12:20.875Z,1011.38
2022-08-17T08:13:20.307Z,1011.38
2022-08-17T08:14:20.557Z,1011.37
2022-08-17T08:15:20.802Z,1011.37
2022-08-17T08:16:22.977Z,1011.31
2022-08-17T08:17:22.168Z,1011.35
2022-08-17T08:18:53.754Z,1011.33
2022-08-17T08:19:22.860Z,1011.33
2022-08-17T08:20:51.338Z,1011.33
2022-08-17T08:21:25.341Z,1011.38
2022-08-17T08:22:22.672Z,1011.42
2022-08-17T08:23:23.885Z,1011.43
2022-08-17T08:24:25.126Z,1011.36
2022-08-17T08:25:24.457Z,1011.41
2022-08-17T08:26:25.635Z,1011.40
2022-08-17T08:27:25.821Z,1011.42
2022-08-17T08:28:25.748Z,1011.34
2022-08-17T08:29:24.596Z,1011.39
2022-08-17T08:30:24.826Z,1011.39
2022-08-17T08:31:25.930Z,1011.37
2022-08-17T08:32:27.268Z,1011.42
2022-08-17T08:33:26.534Z,1011.37
2022-08-17T08:34:54.748Z,1011.38
2022-08-17T08:35:27.067Z,1011.35
2022-08-17T08:37:02.149Z,1011.38
2022-08-17T08:37:34.441Z,1011.40
2022-08-17T08:38:28.834Z,1011.41
2022-08-17T08:39:27.183Z,1011.42
2022-08-17T08:40:29.333Z,1011.44
2022-08-17T08:41:27.642Z,1011.45
2022-08-17T08:42:29.847Z,1011.43
2022-08-17T08:43:29.124Z,1011.50
2022-08-17T08:45:01.151Z,1011.37
2022-08-17T08:45:31.631Z,1011.48
2022-08-17T08:46:30.836Z,1011.50
2022-08-17T08:47:30.979Z,1011.52
2022-08-17T08:48:52.775Z,1011.59
2022-08-17T08:49:59.572Z,1011.53
2022-08-17T08:50:38.455Z,1011.53
2022-08-17T08:51:33.118Z,1011.61
2022-08-17T08:52:30.578Z,1011.63
2022-08-17T08:53:31.297Z,1011.66
2022-08-17T08:54:31.091Z,1011.66
2022-08-17T08:55:33.291Z,1011.73
2022-08-17T08:56:31.639Z,1011.71
2022-08-17T08:57:34.492Z,1011.72
2022-08-17T08:58:41.702Z,1011.68
2022-08-17T08:59:33.420Z,1011.66
2022-08-17T09:00:34.621Z,1011.67
2022-08-17T09:01:33.137Z,1011.70
2022-08-17T09:02:34.832Z,1011.71
2022-08-17T09:03:51.519Z,1011.74
2022-08-17T09:04:50.185Z,1011.71
2022-08-17T09:05:37.251Z,1011.68
2022-08-17T09:06:39.422Z,1011.68
2022-08-17T09:07:36.642Z,1011.68
2022-08-17T09:08:38.246Z,1011.65
2022-08-17T09:09:37.090Z,1011.65
2022-08-17T09:10:37.778Z,1011.65
2022-08-17T09:12:02.521Z,1011.67
2022-08-17T09:12:37.415Z,1011.67
2022-08-17T09:13:40.628Z,1011.69
2022-08-17T09:14:45.099Z,1011.68
2022-08-17T09:15:38.233Z,1011.71
2022-08-17T09:16:39.395Z,1011.66
2022-08-17T09:17:39.575Z,1011.73
2022-08-17T09:19:00.337Z,1011.74
2022-08-17T09:19:39.536Z,1011.82
2022-08-17T09:20:40.650Z,1011.83
2022-08-17T09:21:47.908Z,1011.79
2022-08-17T09:22:40.191Z,1011.83
2022-08-17T09:23:40.905Z,1011.88
2022-08-17T09:24:41.257Z,1011.83
2022-08-17T09:25:41.918Z,1011.85
2022-08-17T09:26:42.111Z,1011.83
2022-08-17T09:27:40.659Z,1011.86
2022-08-17T09:28:41.699Z,1011.93
2022-08-17T09:29:41.185Z,1011.89
2022-08-17T09:30:43.329Z,1011.91
2022-08-17T09:31:49.150Z,1011.87
2022-08-17T09:32:42.989Z,1011.80
2022-08-17T09:33:45.320Z,1011.85
2022-08-17T09:34:44.540Z,1011.84
2022-08-17T09:35:42.783Z,1011.88
2022-08-17T09:36:44.972Z,1011.91
2022-08-17T09:37:45.174Z,1011.94
2022-08-17T09:38:46.636Z,1011.89
2022-08-17T09:39:45.602Z,1011.89
2022-08-17T09:40:45.845Z,1011.90
2022-08-17T09:41:49.265Z,1011.93
2022-08-17T09:42:44.729Z,1011.88
2022-08-17T09:43:48.899Z,1011.90
2022-08-17T09:44:47.131Z,1011.87
2022-08-17T09:45:47.308Z,1011.92
2022-08-17T09:46:47.569Z,1011.91
2022-08-17T09:47:47.799Z,1011.90
2022-08-17T09:48:50.532Z,1011.93
2022-08-17T09:49:48.720Z,1011.89
2022-08-17T09:51:04.140Z,1011.91
2022-08-17T09:51:48.381Z,1011.93
2022-08-17T09:52:49.563Z,1011.92
2022-08-17T09:53:50.833Z,1011.91
2022-08-17T09:54:48.867Z,1011.93
2022-08-17T09:55:48.604Z,1011.81
2022-08-17T09:57:05.941Z,1011.81
2022-08-17T09:57:50.319Z,1011.80
2022-08-17T09:58:52.398Z,1011.75
2022-08-17T09:59:49.718Z,1011.76
2022-08-17T10:00:51.957Z,1011.77
2022-08-17T10:01:50.378Z,1011.76
2022-08-17T10:02:50.629Z,1011.83
2022-08-17T10:03:53.797Z,1011.78
2022-08-17T10:04:51.132Z,1011.79
2022-08-17T10:05:56.478Z,1011.79
2022-08-17T10:06:53.514Z,1011.79
2022-08-17T10:07:52.132Z,1011.80
2022-08-17T10:08:55.279Z,1011.79
2022-08-17T10:09:52.477Z,1011.79
2022-08-17T10:10:56.547Z,1011.67
2022-08-17T10:11:52.995Z,1011.68
2022-08-17T10:12:55.205Z,1011.68
2022-08-17T10:13:59.492Z,1011.67
2022-08-17T10:14:55.591Z,1011.64
2022-08-17T10:15:55.778Z,1011.61
2022-08-17T10:16:54.338Z,1011.60
2022-08-17T10:17:54.580Z,1011.61
2022-08-17T10:18:56.394Z,1011.61
2022-08-17T10:19:57.075Z,1011.66
2022-08-17T10:20:55.733Z,1011.63
2022-08-17T10:22:01.136Z,1011.64
2022-08-17T10:22:56.063Z,1011.63
2022-08-17T10:23:59.224Z,1011.67
2022-08-17T10:25:21.638Z,1011.73
2022-08-17T10:25:57.806Z,1011.71
2022-08-17T10:26:57.586Z,1011.72
2022-08-17T10:27:59.304Z,1011.73
2022-08-17T10:29:01.466Z,1011.71
2022-08-17T10:29:58.887Z,1011.70
2022-08-17T10:31:23.316Z,1011.72
2022-08-17T10:31:59.463Z,1011.68
2022-08-17T10:33:00.656Z,1011.66
2022-08-17T10:34:00.035Z,1011.66
2022-08-17T10:34:59.361Z,1011.65
2022-08-17T10:35:59.598Z,1011.66
2022-08-17T10:37:01.839Z,1011.62
2022-08-17T10:38:00.148Z,1011.61
2022-08-17T10:39:02.360Z,1011.61
2022-08-17T10:40:00.716Z,1011.60
2022-08-17T10:41:00.971Z,1011.58
2022-08-17T10:42:03.128Z,1011.59
2022-08-17T10:43:03.340Z,1011.59
2022-08-17T10:44:38.095Z,1011.56
2022-08-17T10:45:03.099Z,1011.58
2022-08-17T10:46:10.317Z,1011.59
2022-08-17T10:47:03.667Z,1011.60
2022-08-17T10:48:06.679Z,1011.66
2022-08-17T10:49:03.298Z,1011.59
2022-08-17T10:50:03.538Z,1011.61
2022-08-17T10:51:05.750Z,1011.58
2022-08-17T10:52:05.913Z,1011.58
2022-08-17T10:53:06.096Z,1011.58
2022-08-17T10:54:06.279Z,1011.61
2022-08-17T10:55:06.974Z,1011.62
2022-08-17T10:56:07.163Z,1011.63
2022-08-17T10:57:07.355Z,1011.58
2022-08-17T10:58:07.552Z,1011.59
2022-08-17T10:59:06.252Z,1011.60
2022-08-17T11:00:06.507Z,1011.60
2022-08-17T11:01:06.779Z,1011.60
2022-08-17T11:02:08.932Z,1011.63
2022-08-17T11:03:07.268Z,1011.62
2022-08-17T11:04:07.526Z,1011.65
2022-08-17T11:05:07.759Z,1011.67
2022-08-17T11:06:08.010Z,1011.61
2022-08-17T11:07:10.203Z,1011.62
2022-08-17T11:08:10.435Z,1011.60
2022-08-17T11:09:10.630Z,1011.64
2022-08-17T11:10:09.080Z,1011.63
2022-08-17T11:11:09.331Z,1011.59
2022-08-17T11:12:11.514Z,1011.56
2022-08-17T11:13:10.682Z,1011.62
2022-08-17T11:14:11.832Z,1011.57
2022-08-17T11:15:12.021Z,1011.58
2022-08-17T11:16:11.731Z,1011.62
2022-08-17T11:17:11.041Z,1011.62
2022-08-17T11:18:15.184Z,1011.60
2022-08-17T11:19:13.459Z,1011.61
2022-08-17T11:20:13.630Z,1011.58
2022-08-17T11:21:13.825Z,1011.57
2022-08-17T11:22:14.510Z,1011.55
2022-08-17T11:23:14.791Z,1011.53
2022-08-17T11:24:13.111Z,1011.62
2022-08-17T11:25:15.300Z,1011.57
2022-08-17T11:26:15.485Z,1011.55
2022-08-17T11:27:15.666Z,1011.54
2022-08-17T11:28:16.902Z,1011.52
2022-08-17T11:29:16.066Z,1011.48
2022-08-17T11:30:16.738Z,1011.51
2022-08-17T11:31:16.939Z,1011.52
2022-08-17T11:32:15.369Z,1011.52
2022-08-17T11:33:16.649Z,1011.53
2022-08-17T11:34:17.818Z,1011.57
2022-08-17T11:35:16.125Z,1011.52
2022-08-17T11:36:16.353Z,1011.58
2022-08-17T11:37:16.598Z,1011.57
2022-08-17T11:38:17.705Z,1011.57
2022-08-17T11:39:17.161Z,1011.61
2022-08-17T11:40:17.482Z,1011.63
2022-08-17T11:41:17.694Z,1011.60
2022-08-17T11:42:17.930Z,1011.61
2022-08-17T11:43:22.075Z,1011.59
2022-08-17T11:44:21.476Z,1011.55
2022-08-17T11:45:32.479Z,1011.57
2022-08-17T11:46:20.225Z,1011.57
2022-08-17T11:47:21.239Z,1011.57
2022-08-17T11:48:28.157Z,1011.52
2022-08-17T11:49:22.650Z,1011.59
2022-08-17T11:50:25.787Z,1011.58
2022-08-17T11:51:24.394Z,1011.56
2022-08-17T11:52:20.723Z,1011.60
2022-08-17T11:53:22.933Z,1011.60
2022-08-17T11:54:32.751Z,1011.64
2022-08-17T11:55:35.036Z,1011.62
2022-08-17T11:56:25.705Z,1011.62
2022-08-17T11:57:23.047Z,1011.60
2022-08-17T11:58:24.252Z,1011.63
2022-08-17T11:59:24.462Z,1011.67
2022-08-17T12:00:23.018Z,1011.64
2022-08-17T12:01:25.208Z,1011.67
2022-08-17T12:02:27.379Z,1011.64
2022-08-17T12:03:23.829Z,1011.61
2022-08-17T12:04:26.038Z,1011.63
2022-08-17T12:05:24.359Z,1011.60
2022-08-17T12:06:30.517Z,1011.59
2022-08-17T12:07:27.719Z,1011.57
2022-08-17T12:08:25.161Z,1011.60